logo
Rechercher aéroport 
image banner adimage banner adimage banner ad
image banner ad

FAKOBB - Kobb Inn

Situé à , South Africa

ICAO - , IATA -

Données fournies par Airmate  

Information générale

Coordonnées: S32°26'1" E28°41'1"
Élévation : 147 feet MSL.
 
Voir autres Aéroports à Eastern Cape

Données opérationnelles

Special qualification required
Heure actuelle UTC:
Heure actuelle locale:
Météo à : - ( 0 km )
METAR: EHKD 180125Z AUTO 31004KT 9000 BR OVC094 15/14 Q1009 BLU
Voir NOTAMs / SUP AIP / TFR affectant cet aéroport [VIEW]
Fréquences de communication: [VIEW]

Pistes:

Identifiant RWYQFULongueur (ft)Largeur (ft)SurfaceLDA (ft)
07147°147666SAND
25327°147666SAND

Coordonnées de l'aéroport

Adresse: South Africa

Vue satellite de FAKOBB